Time;durP1;ratioP1;P1;durP2;ratioP2;P2;SDS_P1;SDS_P2;PMS_P1;PMS_P2;Temp;Humidity;BMP_temperature;BMP_pressure;BME280_temperature;BME280_humidity;BME280_pressure;Samples;Min_cycle;Max_cycle;Signal;HPM_P1;HPM_P2
2021/01/29 00:00:11;;;;;;;1.27;1.10;;;16.00;62.40;;;;;;6336855;22;19995;-73
2021/01/29 00:02:37;;;;;;;0.90;0.60;;;16.00;62.40;;;;;;6335961;22;20370;-73
2021/01/29 00:05:03;;;;;;;0.90;0.63;;;16.00;62.30;;;;;;6336435;22;20432;-73
2021/01/29 00:07:28;;;;;;;0.65;0.60;;;16.10;62.30;;;;;;6336447;22;20025;-73
2021/01/29 00:09:54;;;;;;;1.33;0.90;;;16.00;62.20;;;;;;6336220;22;20056;-73
2021/01/29 00:12:23;;;;;;;1.33;0.75;;;16.10;62.30;;;;;;6336232;22;19995;-73
2021/01/29 00:14:49;;;;;;;3.33;0.75;;;16.10;62.30;;;;;;6336626;22;20003;-73
2021/01/29 00:17:14;;;;;;;1.45;0.68;;;16.10;62.30;;;;;;6337153;22;20025;-73
2021/01/29 00:19:41;;;;;;;2.78;0.50;;;16.10;62.30;;;;;;6337042;22;20412;-73
2021/01/29 00:22:06;;;;;;;1.00;0.60;;;16.10;62.30;;;;;;6337070;22;20010;-73
2021/01/29 00:24:32;;;;;;;0.90;0.55;;;16.10;62.20;;;;;;6360364;22;20011;-73
2021/01/29 00:26:58;;;;;;;0.95;0.50;;;16.00;62.30;;;;;;6336170;22;20443;-73
2021/01/29 00:29:23;;;;;;;1.45;0.95;;;16.00;62.40;;;;;;6338360;22;20324;-73
2021/01/29 00:31:49;;;;;;;0.63;0.57;;;16.00;62.40;;;;;;6339149;22;20009;-73
2021/01/29 00:34:15;;;;;;;2.92;1.05;;;16.00;62.50;;;;;;6338650;22;20006;-73
2021/01/29 00:36:41;;;;;;;0.77;0.60;;;16.00;62.60;;;;;;6338808;22;20378;-73
2021/01/29 00:39:07;;;;;;;0.60;0.60;;;16.00;62.70;;;;;;6338194;22;20128;-73
2021/01/29 00:41:33;;;;;;;1.27;0.80;;;16.00;62.70;;;;;;6336930;22;20009;-73
2021/01/29 00:43:59;;;;;;;0.90;0.50;;;16.00;62.70;;;;;;6338569;22;20056;-73
2021/01/29 00:46:24;;;;;;;0.98;0.88;;;15.90;62.80;;;;;;6338393;22;20002;-73
2021/01/29 00:48:50;;;;;;;0.95;0.70;;;15.90;62.70;;;;;;6311510;22;20054;-73
2021/01/29 00:51:16;;;;;;;1.52;0.77;;;15.90;62.80;;;;;;6337237;22;20003;-73
2021/01/29 00:53:43;;;;;;;0.88;0.50;;;15.90;62.80;;;;;;6337896;22;20316;-73
2021/01/29 00:56:08;;;;;;;2.03;0.70;;;15.90;62.80;;;;;;6336188;22;20324;-73
2021/01/29 00:58:34;;;;;;;0.73;0.50;;;15.90;62.90;;;;;;6337242;22;20005;-73
2021/01/29 01:01:00;;;;;;;0.60;0.60;;;15.90;62.90;;;;;;6337928;22;20002;-72
2021/01/29 01:03:27;;;;;;;0.57;0.57;;;15.80;62.90;;;;;;6310770;22;20440;-72
2021/01/29 01:05:54;;;;;;;1.42;0.90;;;15.90;62.90;;;;;;6336531;22;20082;-73
2021/01/29 01:08:20;;;;;;;1.15;0.55;;;15.80;62.80;;;;;;6338593;22;20411;-73
2021/01/29 01:10:46;;;;;;;2.55;0.57;;;15.80;62.80;;;;;;6338160;22;20010;-73
2021/01/29 01:13:11;;;;;;;0.73;0.60;;;15.80;62.80;;;;;;6338727;22;20443;-73
2021/01/29 01:15:37;;;;;;;0.50;0.50;;;15.90;62.80;;;;;;6338629;22;20085;-73
2021/01/29 01:18:05;;;;;;;0.93;0.55;;;15.90;62.80;;;;;;6338309;22;19999;-73
2021/01/29 01:20:30;;;;;;;0.63;0.55;;;15.80;62.80;;;;;;6338599;22;20006;-73
2021/01/29 01:22:57;;;;;;;1.77;0.85;;;15.80;62.80;;;;;;6338657;22;20003;-73
2021/01/29 01:25:23;;;;;;;1.08;0.80;;;15.80;62.80;;;;;;6310033;22;19999;-73
2021/01/29 01:27:50;;;;;;;1.42;0.88;;;15.80;62.70;;;;;;6337086;22;20033;-73
2021/01/29 01:30:24;;;;;;;0.52;0.40;;;15.80;62.70;;;;;;6337907;22;19995;-72
2021/01/29 01:32:49;;;;;;;1.45;0.90;;;15.80;62.70;;;;;;6337832;22;19995;-73
2021/01/29 01:35:16;;;;;;;0.32;0.30;;;15.80;62.70;;;;;;6337639;22;20100;-73
2021/01/29 01:37:42;;;;;;;1.45;0.70;;;15.80;62.70;;;;;;6337986;22;20002;-73
2021/01/29 01:40:09;;;;;;;0.68;0.60;;;15.80;62.60;;;;;;6309690;22;19999;-73
2021/01/29 01:42:35;;;;;;;1.13;0.90;;;15.80;62.60;;;;;;6335991;22;20003;-73
2021/01/29 01:45:01;;;;;;;0.30;0.30;;;15.80;62.60;;;;;;6338002;22;20002;-72
2021/01/29 01:47:35;;;;;;;0.65;0.50;;;15.80;62.60;;;;;;6338152;22;19998;-73
2021/01/29 01:50:36;;;;;;;0.50;0.50;;;15.80;62.60;;;;;;6310341;22;20006;-72
2021/01/29 01:53:06;;;;;;;0.85;0.50;;;15.80;62.60;;;;;;6337117;22;20302;-73
2021/01/29 01:55:36;;;;;;;0.50;0.45;;;15.80;62.60;;;;;;6337817;22;20447;-73
2021/01/29 01:58:03;;;;;;;1.50;0.60;;;15.80;62.60;;;;;;6310044;22;20006;-73
2021/01/29 02:00:31;;;;;;;0.50;0.47;;;15.80;62.50;;;;;;6337507;22;19991;-73
2021/01/29 02:03:03;;;;;;;1.98;0.60;;;15.80;62.50;;;;;;6338168;22;20002;-73
2021/01/29 02:05:32;;;;;;;0.65;0.50;;;15.80;62.50;;;;;;6337400;22;20073;-73
2021/01/29 02:08:18;;;;;;;1.27;0.60;;;15.80;62.50;;;;;;6336179;22;20026;-72
2021/01/29 02:10:49;;;;;;;1.02;0.60;;;15.80;62.50;;;;;;6335024;22;20329;-71
2021/01/29 02:13:14;;;;;;;1.17;0.60;;;15.80;62.40;;;;;;6337684;22;20067;-71
2021/01/29 02:15:48;;;;;;;1.75;0.40;;;15.80;62.40;;;;;;6339190;22;20273;-71
2021/01/29 02:18:30;;;;;;;2.63;0.57;;;15.80;62.40;;;;;;6311390;22;20316;-71
2021/01/29 02:21:30;;;;;;;1.98;0.60;;;15.80;62.40;;;;;;6338810;22;20014;-71
2021/01/29 02:24:14;;;;;;;0.75;0.55;;;15.80;62.40;;;;;;6336884;22;20074;-71
2021/01/29 02:26:46;;;;;;;0.85;0.52;;;15.80;62.30;;;;;;6310090;22;20345;-71
2021/01/29 02:29:56;;;;;;;0.60;0.50;;;15.80;62.30;;;;;;6338430;22;20070;-71
2021/01/29 02:32:36;;;;;;;0.93;0.45;;;15.80;62.30;;;;;;6338391;22;20002;-71
2021/01/29 02:35:55;;;;;;;0.52;0.40;;;15.80;62.30;;;;;;6310644;22;19999;-71
2021/01/29 02:38:58;;;;;;;0.73;0.50;;;15.80;62.30;;;;;;6315556;22;20010;-71
2021/01/29 02:41:30;;;;;;;0.40;0.40;;;15.80;62.30;;;;;;6338414;22;20002;-71
2021/01/29 02:44:25;;;;;;;0.77;0.50;;;15.80;62.30;;;;;;6338479;22;20002;-71
2021/01/29 02:47:05;;;;;;;0.38;0.38;;;15.80;62.20;;;;;;6338038;22;19999;-71
2021/01/29 02:49:55;;;;;;;1.15;0.75;;;15.80;62.30;;;;;;6336592;22;20056;-71
2021/01/29 02:52:44;;;;;;;0.95;0.60;;;15.80;62.20;;;;;;6338400;22;19999;-72
2021/01/29 02:55:28;;;;;;;0.88;0.50;;;15.80;62.20;;;;;;6363005;22;20011;-71
2021/01/29 02:58:29;;;;;;;1.73;0.43;;;15.80;62.30;;;;;;6336149;22;20078;-71
2021/01/29 03:01:09;;;;;;;0.95;0.40;;;15.80;62.30;;;;;;6337717;22;20002;-71
2021/01/29 03:03:52;;;;;;;0.50;0.50;;;15.80;62.20;;;;;;6338681;22;20117;-71
2021/01/29 03:06:24;;;;;;;0.60;0.50;;;15.80;62.10;;;;;;6362384;22;20421;-72
2021/01/29 03:08:59;;;;;;;1.48;0.40;;;15.80;62.00;;;;;;6336775;22;20330;-71
2021/01/29 03:12:01;;;;;;;0.60;0.50;;;15.80;62.00;;;;;;6338326;22;19999;-71
2021/01/29 03:14:33;;;;;;;1.05;0.47;;;15.80;62.00;;;;;;6315784;22;20003;-71
2021/01/29 03:17:24;;;;;;;0.40;0.40;;;15.80;62.00;;;;;;6337243;22;19998;-71
2021/01/29 03:20:05;;;;;;;0.55;0.50;;;15.80;62.00;;;;;;6330710;22;20003;-71
2021/01/29 03:22:47;;;;;;;1.48;0.73;;;15.80;62.00;;;;;;6337936;22;20052;-71
2021/01/29 03:25:26;;;;;;;0.70;0.40;;;15.80;62.00;;;;;;6337355;22;19994;-71
2021/01/29 03:28:11;;;;;;;0.68;0.45;;;15.80;61.90;;;;;;6338489;22;20440;-71
2021/01/29 03:30:42;;;;;;;1.67;0.50;;;15.90;61.90;;;;;;6337732;22;20429;-71
2021/01/29 03:33:12;;;;;;;1.13;0.55;;;15.90;61.80;;;;;;6338178;22;20030;-71
2021/01/29 03:35:41;;;;;;;1.05;0.40;;;15.90;61.90;;;;;;6337116;22;20010;-71
2021/01/29 03:38:22;;;;;;;1.08;0.65;;;15.90;61.80;;;;;;6338335;22;20034;-71
2021/01/29 03:40:56;;;;;;;0.40;0.40;;;15.90;61.80;;;;;;6336445;22;19999;-71
2021/01/29 03:43:31;;;;;;;1.45;0.63;;;15.80;61.80;;;;;;6338035;22;20391;-71
2021/01/29 03:46:05;;;;;;;0.30;0.30;;;15.80;61.80;;;;;;6337544;22;20432;-71
2021/01/29 03:48:54;;;;;;;0.85;0.40;;;15.90;61.80;;;;;;6337748;22;20467;-72
2021/01/29 03:51:26;;;;;;;0.50;0.50;;;15.90;61.70;;;;;;6309413;22;20424;-71
2021/01/29 03:54:15;;;;;;;0.40;0.20;;;15.80;61.70;;;;;;6338296;22;20033;-71
2021/01/29 03:57:02;;;;;;;0.35;0.35;;;15.90;61.70;;;;;;6336515;22;20082;-71
2021/01/29 03:59:56;;;;;;;0.32;0.32;;;15.80;61.60;;;;;;6337094;22;20321;-71
2021/01/29 04:02:41;;;;;;;0.95;0.50;;;15.80;61.60;;;;;;6338047;22;20417;-72
2021/01/29 04:05:22;;;;;;;0.70;0.65;;;15.80;61.60;;;;;;6337583;22;19999;-72
2021/01/29 04:08:04;;;;;;;0.52;0.40;;;15.80;61.70;;;;;;6338533;22;20062;-71
2021/01/29 04:10:32;;;;;;;0.50;0.40;;;15.80;61.70;;;;;;6335979;22;20003;-71
2021/01/29 04:13:10;;;;;;;0.63;0.38;;;15.80;61.70;;;;;;6337939;22;20063;-71
2021/01/29 04:15:40;;;;;;;0.73;0.50;;;15.80;61.70;;;;;;6338431;22;20002;-71
2021/01/29 04:18:26;;;;;;;1.67;0.52;;;15.80;61.70;;;;;;6338412;22;20006;-71
2021/01/29 04:21:22;;;;;;;0.40;0.22;;;15.80;61.70;;;;;;6337832;22;20006;-72
2021/01/29 04:24:26;;;;;;;0.60;0.52;;;15.80;61.70;;;;;;6337105;22;20034;-71
2021/01/29 04:26:57;;;;;;;0.30;0.30;;;15.80;61.80;;;;;;6335812;22;20002;-71
2021/01/29 04:29:29;;;;;;;0.40;0.40;;;15.80;61.60;;;;;;6338142;22;19995;-73
2021/01/29 04:32:01;;;;;;;0.40;0.40;;;15.80;61.70;;;;;;6338368;22;20005;-72
2021/01/29 04:34:29;;;;;;;1.35;0.40;;;15.80;61.70;;;;;;6336091;22;20018;-71
2021/01/29 04:36:58;;;;;;;0.60;0.40;;;15.80;61.70;;;;;;6337543;22;19998;-71
2021/01/29 04:39:39;;;;;;;0.57;0.30;;;15.80;61.80;;;;;;6338337;22;20003;-71
2021/01/29 04:42:26;;;;;;;0.43;0.43;;;15.80;61.70;;;;;;6335889;22;20043;-71
2021/01/29 04:45:13;;;;;;;0.40;0.40;;;15.80;61.70;;;;;;6337248;22;20064;-71
2021/01/29 04:48:05;;;;;;;0.60;0.40;;;15.80;61.70;;;;;;6337795;22;20444;-71
2021/01/29 04:50:41;;;;;;;0.55;0.40;;;15.80;61.70;;;;;;6310227;22;20067;-71
2021/01/29 04:53:16;;;;;;;0.20;0.20;;;15.80;61.70;;;;;;6310011;22;20333;-71
2021/01/29 04:56:03;;;;;;;1.17;0.32;;;15.80;61.70;;;;;;6309866;22;20026;-71
2021/01/29 04:58:30;;;;;;;0.50;0.50;;;15.80;61.70;;;;;;6309742;22;20014;-71
2021/01/29 05:01:22;;;;;;;1.10;0.45;;;15.80;61.70;;;;;;6337654;22;20009;-72
2021/01/29 05:04:06;;;;;;;0.60;0.30;;;15.80;61.70;;;;;;6310655;22;20487;-71
2021/01/29 05:06:52;;;;;;;1.25;0.60;;;15.80;61.70;;;;;;6335841;22;20105;-71
2021/01/29 05:09:32;;;;;;;0.77;0.40;;;15.80;61.70;;;;;;6336018;22;19998;-71
2021/01/29 05:12:31;;;;;;;2.10;0.47;;;15.80;61.70;;;;;;6337374;22;20002;-71
2021/01/29 05:15:19;;;;;;;0.28;0.28;;;15.80;61.70;;;;;;6337901;22;20017;-71
2021/01/29 05:18:11;;;;;;;0.32;0.20;;;15.80;61.60;;;;;;6339871;22;20027;-71
2021/01/29 05:21:04;;;;;;;1.13;0.88;;;15.80;61.60;;;;;;6339129;22;20048;-71
2021/01/29 05:23:54;;;;;;;0.35;0.35;;;15.80;61.60;;;;;;6312265;22;20007;-71
2021/01/29 05:26:48;;;;;;;1.13;0.40;;;15.80;61.60;;;;;;6310728;22;20003;-71
2021/01/29 05:29:27;;;;;;;0.57;0.30;;;15.80;61.60;;;;;;6338994;22;20006;-71
2021/01/29 05:32:06;;;;;;;0.55;0.40;;;15.80;61.60;;;;;;6339359;22;19999;-71
2021/01/29 05:34:48;;;;;;;0.30;0.30;;;15.80;61.60;;;;;;6311659;22;20018;-71
2021/01/29 05:37:35;;;;;;;0.30;0.28;;;15.80;61.60;;;;;;6311331;22;20014;-71
2021/01/29 05:40:07;;;;;;;0.25;0.25;;;15.80;61.60;;;;;;6338978;22;20038;-72
2021/01/29 05:42:58;;;;;;;0.73;0.45;;;15.80;61.60;;;;;;6338438;22;20089;-72
2021/01/29 05:45:42;;;;;;;1.35;0.50;;;15.80;61.60;;;;;;6294159;22;20052;-71
2021/01/29 05:48:36;;;;;;;0.30;0.22;;;15.80;61.60;;;;;;6339282;22;19990;-71
2021/01/29 05:51:23;;;;;;;0.32;0.20;;;15.80;61.60;;;;;;6339413;22;19991;-71
2021/01/29 05:54:06;;;;;;;0.40;0.30;;;15.80;61.60;;;;;;6336818;22;20014;-71
2021/01/29 05:57:00;;;;;;;0.30;0.22;;;15.80;61.60;;;;;;6338588;22;19995;-71
2021/01/29 05:59:52;;;;;;;0.38;0.28;;;15.80;61.60;;;;;;6337329;22;20368;-71
2021/01/29 06:02:32;;;;;;;0.85;0.52;;;15.80;61.70;;;;;;6339435;22;20047;-71
2021/01/29 06:05:12;;;;;;;0.30;0.30;;;15.80;61.50;;;;;;6338125;22;20006;-71
2021/01/29 06:08:04;;;;;;;0.30;0.22;;;15.80;61.40;;;;;;6339256;22;19995;-71
2021/01/29 06:10:36;;;;;;;0.45;0.32;;;15.80;61.40;;;;;;6301626;22;20002;-71
2021/01/29 06:13:08;;;;;;;0.30;0.30;;;15.90;61.30;;;;;;6310830;22;20485;-72
2021/01/29 06:15:46;;;;;;;1.00;0.32;;;15.90;61.30;;;;;;6311260;22;20361;-71
2021/01/29 06:18:28;;;;;;;0.40;0.40;;;15.90;61.30;;;;;;6339242;22;20023;-71
2021/01/29 06:21:03;;;;;;;0.20;0.20;;;15.90;61.20;;;;;;6311781;22;19995;-73
2021/01/29 06:24:01;;;;;;;0.40;0.30;;;15.90;61.20;;;;;;6310906;22;20011;-73
2021/01/29 06:26:50;;;;;;;1.13;0.20;;;15.90;61.20;;;;;;6309754;22;20089;-73
2021/01/29 06:29:19;;;;;;;0.35;0.35;;;15.90;61.20;;;;;;6337022;22;19999;-73
2021/01/29 06:32:03;;;;;;;1.75;0.30;;;15.90;61.10;;;;;;6337497;22;20044;-73
2021/01/29 06:35:03;;;;;;;2.08;0.98;;;15.90;61.20;;;;;;6309598;22;20013;-73
2021/01/29 06:38:04;;;;;;;0.50;0.32;;;15.90;61.20;;;;;;6338794;22;20006;-73
2021/01/29 06:40:29;;;;;;;0.30;0.30;;;15.90;61.20;;;;;;6280178;22;20018;-73
2021/01/29 06:43:44;;;;;;;0.20;0.20;;;15.90;61.20;;;;;;6307261;22;20313;-73
2021/01/29 06:46:26;;;;;;;0.40;0.40;;;15.90;61.30;;;;;;6307126;22;19992;-73
2021/01/29 06:49:25;;;;;;;0.45;0.20;;;15.90;61.30;;;;;;6307798;22;19999;-73
2021/01/29 06:52:21;;;;;;;0.52;0.30;;;15.90;61.30;;;;;;6307553;22;19996;-73
2021/01/29 06:55:14;;;;;;;1.33;0.30;;;15.90;61.40;;;;;;6307092;22;20015;-73
2021/01/29 06:58:04;;;;;;;0.20;0.20;;;15.80;61.40;;;;;;6307284;22;20004;-73
2021/01/29 07:01:05;;;;;;;1.10;0.30;;;15.90;61.50;;;;;;6305085;22;20312;-73
2021/01/29 07:03:55;;;;;;;0.80;0.28;;;15.80;61.60;;;;;;6275042;22;20003;-73
2021/01/29 07:06:44;;;;;;;0.32;0.17;;;15.80;61.60;;;;;;6306568;22;20019;-73
2021/01/29 07:09:31;;;;;;;0.85;0.40;;;15.80;61.60;;;;;;6279706;22;19995;-73
2021/01/29 07:12:07;;;;;;;0.75;0.40;;;15.80;61.60;;;;;;6307372;22;20030;-73
2021/01/29 07:14:39;;;;;;;0.30;0.30;;;15.80;61.60;;;;;;6305205;22;20015;-73
2021/01/29 07:17:15;;;;;;;0.63;0.20;;;15.80;61.70;;;;;;6279879;22;20095;-73
2021/01/29 07:19:52;;;;;;;0.30;0.30;;;15.80;61.70;;;;;;6307000;22;19996;-73
2021/01/29 07:22:46;;;;;;;0.20;0.20;;;15.80;61.60;;;;;;6307531;22;19999;-73
2021/01/29 07:25:44;;;;;;;0.30;0.30;;;15.80;61.60;;;;;;6279326;22;20007;-73
2021/01/29 07:28:44;;;;;;;0.30;0.30;;;15.80;61.60;;;;;;6274448;22;20112;-73
2021/01/29 07:31:34;;;;;;;0.60;0.30;;;15.80;61.60;;;;;;6306416;22;19995;-73
2021/01/29 07:34:28;;;;;;;0.32;0.22;;;15.90;61.60;;;;;;6307057;22;20079;-73
2021/01/29 07:36:56;;;;;;;1.40;0.30;;;15.80;61.70;;;;;;6304127;22;19999;-73
2021/01/29 07:39:46;;;;;;;1.33;0.30;;;15.80;61.60;;;;;;6319441;22;20038;-74
2021/01/29 07:42:18;;;;;;;0.70;0.20;;;15.80;61.60;;;;;;6338116;22;19999;-73
2021/01/29 07:44:52;;;;;;;0.65;0.40;;;15.80;61.70;;;;;;6337973;22;20026;-73
2021/01/29 07:47:22;;;;;;;0.10;0.10;;;15.80;61.70;;;;;;6337798;22;19995;-73
2021/01/29 07:50:26;;;;;;;0.30;0.30;;;15.80;61.70;;;;;;6336081;22;19999;-74
2021/01/29 07:53:08;;;;;;;3.63;0.43;;;15.80;61.80;;;;;;6338224;22;20073;-73
2021/01/29 07:56:18;;;;;;;1.48;0.60;;;15.90;61.70;;;;;;6337958;22;20003;-74
2021/01/29 07:59:02;;;;;;;0.50;0.30;;;15.90;61.70;;;;;;6337270;22;20132;-73
2021/01/29 08:02:13;;;;;;;0.85;0.40;;;15.90;61.70;;;;;;6336443;22;20484;-73
2021/01/29 08:04:39;;;;;;;0.88;0.30;;;15.90;61.60;;;;;;6329952;22;20432;-73
2021/01/29 08:07:19;;;;;;;0.82;0.30;;;15.90;61.60;;;;;;6335880;22;20002;-74
2021/01/29 08:09:53;;;;;;;3.20;0.30;;;15.90;61.60;;;;;;6337847;22;20003;-72
2021/01/29 08:12:22;;;;;;;1.55;0.38;;;15.90;61.60;;;;;;6363177;22;20082;-72
2021/01/29 08:15:12;;;;;;;3.20;0.20;;;16.00;61.70;;;;;;6338632;22;20448;-73
2021/01/29 08:18:00;;;;;;;0.70;0.40;;;15.90;61.70;;;;;;6338234;22;20021;-73
2021/01/29 08:20:44;;;;;;;1.33;0.30;;;15.90;61.70;;;;;;6337271;22;19999;-73
2021/01/29 08:23:37;;;;;;;0.35;0.30;;;15.90;61.90;;;;;;6337532;22;20006;-73
2021/01/29 08:26:41;;;;;;;0.20;0.20;;;15.90;61.90;;;;;;6362597;22;20027;-72
2021/01/29 08:29:41;;;;;;;0.30;0.30;;;15.90;61.90;;;;;;6336165;22;20006;-72
2021/01/29 08:32:44;;;;;;;0.80;0.30;;;16.00;61.90;;;;;;6336182;22;20422;-72
2021/01/29 08:35:49;;;;;;;1.95;0.20;;;16.00;61.80;;;;;;6337671;22;20078;-72
2021/01/29 08:38:29;;;;;;;2.60;0.50;;;16.00;61.70;;;;;;6337374;22;20017;-72
2021/01/29 08:41:14;;;;;;;1.00;0.32;;;16.00;61.70;;;;;;6310081;22;19999;-72
2021/01/29 08:44:07;;;;;;;0.30;0.30;;;16.00;61.60;;;;;;6337304;22;20005;-72
2021/01/29 08:46:41;;;;;;;0.85;0.20;;;16.10;61.70;;;;;;6335853;22;20005;-72
2021/01/29 08:49:43;;;;;;;0.82;0.20;;;16.10;61.60;;;;;;6310895;22;20090;-72
2021/01/29 08:52:24;;;;;;;0.30;0.30;;;16.00;61.60;;;;;;6338210;22;20122;-72
2021/01/29 08:55:08;;;;;;;0.22;0.22;;;16.10;61.70;;;;;;6339366;22;20011;-72
2021/01/29 08:58:32;;;;;;;1.15;0.38;;;16.00;61.70;;;;;;6338916;22;20002;-73
2021/01/29 09:01:18;;;;;;;0.15;0.10;;;16.10;61.70;;;;;;6238848;23;20000;-72
2021/01/29 09:03:59;;;;;;;0.20;0.20;;;16.10;62.00;;;;;;6311959;22;20305;-72
2021/01/29 09:06:29;;;;;;;0.65;0.32;;;16.00;62.50;;;;;;6311494;22;20081;-72
2021/01/29 09:09:04;;;;;;;0.85;0.22;;;16.00;62.60;;;;;;6310886;22;20013;-72
2021/01/29 09:11:46;;;;;;;0.60;0.30;;;16.10;62.60;;;;;;6311701;22;20349;-73
2021/01/29 09:14:25;;;;;;;2.58;0.30;;;16.10;62.50;;;;;;6311697;22;20403;-73
2021/01/29 09:17:02;;;;;;;1.45;0.43;;;16.10;62.50;;;;;;6339513;22;19998;-73
2021/01/29 09:19:29;;;;;;;1.45;0.32;;;16.20;62.40;;;;;;6339606;22;20022;-73
2021/01/29 09:22:29;;;;;;;1.05;0.30;;;16.10;62.30;;;;;;6339633;22;19999;-73
2021/01/29 09:25:23;;;;;;;0.22;0.22;;;16.20;62.30;;;;;;6339258;22;20300;-73
2021/01/29 09:28:09;;;;;;;1.25;0.32;;;16.20;62.30;;;;;;6311501;22;20033;-73
2021/01/29 09:30:44;;;;;;;0.55;0.28;;;16.20;62.40;;;;;;6339316;22;20065;-72
2021/01/29 09:33:26;;;;;;;0.65;0.30;;;16.30;62.40;;;;;;6312050;22;20060;-73
2021/01/29 09:36:10;;;;;;;0.20;0.20;;;16.30;62.40;;;;;;6339194;22;20002;-73
2021/01/29 09:38:43;;;;;;;2.75;0.30;;;16.30;62.30;;;;;;6318465;22;20018;-73
2021/01/29 09:41:14;;;;;;;0.55;0.30;;;16.30;62.30;;;;;;6339198;22;19995;-73
2021/01/29 09:43:55;;;;;;;4.55;0.63;;;16.30;62.20;;;;;;6339423;22;20082;-72
2021/01/29 09:46:29;;;;;;;0.40;0.30;;;16.30;62.20;;;;;;6339096;22;20301;-73
2021/01/29 09:48:59;;;;;;;1.40;0.35;;;16.30;62.20;;;;;;6337669;22;19999;-71
2021/01/29 09:51:39;;;;;;;0.75;0.30;;;16.30;62.20;;;;;;6339538;22;20435;-73
2021/01/29 09:54:47;;;;;;;1.05;0.20;;;16.30;62.10;;;;;;6336884;22;20015;-72
2021/01/29 09:57:22;;;;;;;;;;;16.30;62.00;;;;;;6336512;22;20051;-73
2021/01/29 10:00:02;;;;;;;0.20;0.20;;;16.30;62.00;;;;;;6338177;22;19903;-73
2021/01/29 10:02:40;;;;;;;0.38;0.25;;;16.30;61.90;;;;;;6362964;22;20006;-73
2021/01/29 10:05:15;;;;;;;4.18;0.50;;;16.40;62.00;;;;;;6337727;22;19998;-73
2021/01/29 10:07:47;;;;;;;1.08;0.30;;;16.40;62.00;;;;;;6335891;22;20003;-73
2021/01/29 10:10:40;;;;;;;0.28;0.20;;;16.40;62.00;;;;;;6337027;22;20431;-73
2021/01/29 10:13:33;;;;;;;0.40;0.20;;;16.30;61.90;;;;;;6338156;22;20051;-73
2021/01/29 10:16:19;;;;;;;0.70;0.28;;;16.40;61.90;;;;;;6339279;22;20435;-72
2021/01/29 10:19:15;;;;;;;0.20;0.13;;;16.40;61.80;;;;;;6336807;22;20006;-72
2021/01/29 10:22:16;;;;;;;1.08;0.40;;;16.40;61.80;;;;;;6336860;22;20294;-73
2021/01/29 10:25:00;;;;;;;1.02;0.30;;;16.40;61.80;;;;;;6336842;22;20017;-73
2021/01/29 10:27:51;;;;;;;0.63;0.20;;;16.40;61.90;;;;;;6335204;22;20077;-73
2021/01/29 10:30:26;;;;;;;1.13;0.40;;;16.40;62.00;;;;;;6306595;22;19998;-73
2021/01/29 10:33:20;;;;;;;0.73;0.38;;;16.40;62.00;;;;;;6338341;22;19999;-72
2021/01/29 10:36:01;;;;;;;0.90;0.30;;;16.40;62.10;;;;;;6363418;22;20010;-72
2021/01/29 10:38:41;;;;;;;0.77;0.35;;;16.40;62.50;;;;;;6336775;22;20022;-73
2021/01/29 10:41:16;;;;;;;0.47;0.35;;;16.40;62.50;;;;;;6309910;22;20302;-72
2021/01/29 10:44:17;;;;;;;0.65;0.38;;;16.40;62.50;;;;;;6338293;22;20003;-72
2021/01/29 10:46:58;;;;;;;1.50;0.47;;;16.40;62.40;;;;;;6330620;22;20047;-72
2021/01/29 10:49:50;;;;;;;2.92;0.43;;;16.40;62.40;;;;;;6337252;22;19998;-72
2021/01/29 10:52:34;;;;;;;0.65;0.28;;;16.40;62.40;;;;;;6293427;22;20293;-72
2021/01/29 10:55:21;;;;;;;0.20;0.20;;;16.40;62.60;;;;;;6336704;22;20006;-72
2021/01/29 10:57:56;;;;;;;2.08;0.40;;;16.40;62.60;;;;;;6337684;22;20410;-73
2021/01/29 11:00:33;;;;;;;0.22;0.22;;;16.40;62.60;;;;;;6337380;22;19991;-72
2021/01/29 11:03:17;;;;;;;1.85;0.30;;;16.40;62.50;;;;;;6310551;22;20435;-72
2021/01/29 11:05:45;;;;;;;1.10;0.30;;;16.40;62.60;;;;;;6336308;22;20086;-72
2021/01/29 11:08:16;;;;;;;0.50;0.30;;;16.40;62.50;;;;;;6309938;22;19998;-72
2021/01/29 11:10:44;;;;;;;3.28;0.38;;;16.50;62.50;;;;;;6309950;22;20425;-72
2021/01/29 11:13:19;;;;;;;1.30;0.38;;;16.40;62.30;;;;;;6309919;22;20013;-72
2021/01/29 11:15:53;;;;;;;6.13;1.77;;;16.50;62.40;;;;;;6337916;22;20383;-72
2021/01/29 11:18:35;;;;;;;1.08;0.57;;;16.50;62.30;;;;;;6337263;22;19999;-73
2021/01/29 11:21:19;;;;;;;0.43;0.25;;;16.40;62.20;;;;;;6336268;22;20423;-72
2021/01/29 11:24:18;;;;;;;1.95;0.32;;;16.50;62.10;;;;;;6338078;22;20034;-72
2021/01/29 11:26:58;;;;;;;0.55;0.38;;;16.50;62.00;;;;;;6338621;22;19998;-72
2021/01/29 11:29:34;;;;;;;0.85;0.20;;;16.50;62.00;;;;;;6337867;22;20383;-72
2021/01/29 11:32:33;;;;;;;2.65;0.40;;;16.50;62.00;;;;;;6337532;22;20453;-72
2021/01/29 11:35:23;;;;;;;2.10;0.25;;;16.50;62.00;;;;;;6337986;22;20007;-72
2021/01/29 11:37:54;;;;;;;0.85;0.32;;;16.50;62.10;;;;;;6335261;22;20002;-72
2021/01/29 11:40:30;;;;;;;1.55;0.30;;;16.50;62.10;;;;;;6310058;22;19995;-73
2021/01/29 11:43:34;;;;;;;2.03;0.28;;;16.50;62.00;;;;;;6337366;22;19999;-72
2021/01/29 11:46:13;;;;;;;2.00;0.50;;;16.50;62.00;;;;;;6336405;22;19999;-72
2021/01/29 11:48:51;;;;;;;1.55;0.22;;;16.50;62.00;;;;;;6338165;22;19999;-72
2021/01/29 11:51:25;;;;;;;2.05;0.57;;;16.50;62.10;;;;;;6338019;22;20503;-72
2021/01/29 11:54:01;;;;;;;0.70;0.30;;;16.50;62.10;;;;;;6310246;22;20006;-73
2021/01/29 11:56:39;;;;;;;0.63;0.43;;;16.50;62.10;;;;;;6337070;22;20070;-72
2021/01/29 11:59:19;;;;;;;3.60;0.30;;;16.50;62.10;;;;;;6310425;22;20367;-73
2021/01/29 12:01:55;;;;;;;0.63;0.30;;;16.50;62.10;;;;;;6338130;22;19997;-72
2021/01/29 12:04:26;;;;;;;2.55;0.47;;;16.50;62.10;;;;;;6308938;22;20023;-73
2021/01/29 12:07:00;;;;;;;0.95;0.40;;;16.60;62.20;;;;;;6337752;22;19991;-72
2021/01/29 12:09:26;;;;;;;0.40;0.20;;;16.70;62.20;;;;;;6310017;22;20010;-73
2021/01/29 12:12:05;;;;;;;3.00;0.45;;;16.70;62.30;;;;;;6310243;22;20328;-73
2021/01/29 12:14:49;;;;;;;9.13;0.75;;;16.80;62.30;;;;;;6309164;22;20009;-72
2021/01/29 12:17:22;;;;;;;1.60;0.30;;;16.80;62.30;;;;;;6336228;22;20036;-72
2021/01/29 12:19:48;;;;;;;1.90;0.25;;;16.80;62.30;;;;;;6336909;22;20047;-73
2021/01/29 12:22:26;;;;;;;2.70;0.80;;;16.80;62.20;;;;;;6335790;22;20447;-73
2021/01/29 12:24:58;;;;;;;9.35;0.40;;;16.80;63.10;;;;;;6337715;22;20009;-73
2021/01/29 12:27:27;;;;;;;0.45;0.20;;;16.80;62.70;;;;;;6310242;22;19999;-73
2021/01/29 12:30:09;;;;;;;4.30;0.30;;;16.80;64.40;;;;;;6337655;22;19995;-73
2021/01/29 12:33:01;;;;;;;2.03;0.30;;;16.90;66.50;;;;;;6335856;22;20493;-73
2021/01/29 12:35:33;;;;;;;7.85;0.88;;;16.90;65.50;;;;;;6324514;22;20015;-73
2021/01/29 12:38:13;;;;;;;1.27;0.28;;;16.90;68.80;;;;;;6309223;22;20007;-73
2021/01/29 12:40:47;;;;;;;0.88;0.40;;;16.90;69.50;;;;;;6337809;22;20014;-72
2021/01/29 12:43:54;;;;;;;3.47;0.60;;;17.00;69.80;;;;;;6309367;22;20031;-71
2021/01/29 12:46:34;;;;;;;12.25;0.73;;;17.10;71.10;;;;;;6260747;22;19999;-72
2021/01/29 12:49:16;;;;;;;5.32;0.82;;;17.20;72.90;;;;;;6337193;22;19995;-72
2021/01/29 12:52:00;;;;;;;11.43;0.90;;;17.20;73.80;;;;;;6336177;22;20439;-72
2021/01/29 12:54:47;;;;;;;5.30;0.95;;;17.20;75.50;;;;;;6336918;22;20018;-73
2021/01/29 12:57:27;;;;;;;9.15;1.80;;;17.30;77.50;;;;;;6335233;22;20014;-73
2021/01/29 13:00:18;;;;;;;4.18;0.90;;;17.20;78.40;;;;;;6309236;22;20072;-72
2021/01/29 13:02:50;;;;;;;9.60;0.98;;;17.20;78.20;;;;;;6299495;22;20002;-73
2021/01/29 13:05:15;;;;;;;3.40;1.02;;;17.10;78.50;;;;;;6336947;22;20048;-72
2021/01/29 13:08:22;;;;;;;3.47;0.40;;;17.10;79.30;;;;;;6337539;22;19999;-73
2021/01/29 13:11:24;;;;;;;4.07;1.30;;;17.10;73.20;;;;;;6322800;22;20060;-72
2021/01/29 13:14:15;;;;;;;3.88;0.47;;;17.00;72.30;;;;;;6309390;22;20006;-73
2021/01/29 13:16:40;;;;;;;4.03;0.50;;;17.00;71.60;;;;;;6310046;22;20010;-74
2021/01/29 13:19:20;;;;;;;0.80;0.45;;;16.90;70.20;;;;;;6310116;22;20003;-73
2021/01/29 13:21:54;;;;;;;6.13;0.70;;;16.90;69.50;;;;;;6337699;22;19999;-74
2021/01/29 13:24:42;;;;;;;1.77;0.90;;;16.80;69.20;;;;;;6308930;22;20447;-73
2021/01/29 13:27:15;;;;;;;3.42;0.60;;;16.80;67.80;;;;;;6337486;22;20030;-73
2021/01/29 13:29:45;;;;;;;1.45;0.50;;;16.80;67.70;;;;;;6338048;22;19999;-73
2021/01/29 13:32:35;;;;;;;3.58;0.80;;;16.80;67.30;;;;;;6337365;22;20002;-73
2021/01/29 13:35:07;;;;;;;2.38;0.60;;;16.80;67.00;;;;;;6338165;22;20006;-73
2021/01/29 13:37:32;;;;;;;2.47;0.55;;;16.80;66.60;;;;;;6338657;22;20432;-73
2021/01/29 13:40:24;;;;;;;1.42;0.60;;;16.80;65.90;;;;;;6336037;22;20053;-73
2021/01/29 13:42:50;;;;;;;0.43;0.40;;;16.80;65.70;;;;;;6329802;22;20416;-72
2021/01/29 13:45:37;;;;;;;1.55;0.63;;;16.80;65.40;;;;;;6337198;22;20006;-72
2021/01/29 13:48:16;;;;;;;2.67;0.57;;;16.80;65.30;;;;;;6337960;22;20306;-73
2021/01/29 13:50:48;;;;;;;1.45;0.45;;;16.80;65.30;;;;;;6338724;22;20031;-73
2021/01/29 13:53:38;;;;;;;1.60;0.60;;;16.80;65.30;;;;;;6338353;22;19999;-73
2021/01/29 13:56:30;;;;;;;1.48;0.50;;;16.80;65.30;;;;;;6337431;22;20007;-74